首页
METAR-TAF:

METAR-TAF

机场 :

布里斯班機場

布里斯班, 澳大利亚

纬度: 27-23S, 经度: 153-06E, 海拔: 4米

当前天气观测

该预报发布于37分钟前的10:30 UTC
风速7节,风向
温度 16°C
湿度 88%
气压 1030 hPa
能见度10公里或以上
少量云层高于2500英尺
小阵雨

METAR: YBBN 271030Z 19007KT 9999 -SHRA FEW025 16/14 Q1030 INTER 1030/1330 5000 SHRA BKN015

时间: 21:07 (11:07 UTC)

预报

该预报发布于5小时和46分钟前的05:21 UTC
预报有效从27日的 06点(UTC)到 28日的 12点(UTC)
风速10节,风向东南
能见度10公里或以上
散云层高于1800英尺
多云层高于3000英尺
小阵雨
从 27日的 1200点(UTC)
风速8节,风向
能见度10公里或以上
散云层高于1500英尺
多云层高于2500英尺
小阵雨
从 28日的 0000点(UTC)
风速14节,风向东南
能見度: 5000
散云层高于3000英尺
多云层高于1500英尺
阵雨

TAF: YBBN 270521Z 2706/2812 14010KT 9999 -SHRA SCT018 BKN030 FM271200 18008KT 9999 -SHRA SCT015 BKN025 FM280000 14014KT 9999 SCT030 INTER 2709/2718 5000 SHRA BKN015

超过4000个机场的气象观测和天气预报(METAR&TAF报告)。

可查询的气象台以黄色和红色小点在地图上表示。

将鼠标移到小点上方,可查看气象台名称。

然后点击查看天气观测和预报。

如需切换地图:点击带黑十字的绿色按钮放大地图;点击带横线的绿色按钮缩小地图;或者点击绿色箭头查看邻近地区的地图。


METAR-TAF: